Latest Weather Observations for Rowley Shoals

IDW60801

Issued at 10:33 pm WST Saturday 19 August 2017 (issued every 30 minutes, with the page automatically refreshed every 10 minutes)

About weather observations | Map of weather stations | Latest weather observations for WA | Other Formats
Station Details ID: 200713 Name: ROWLEY SHOALS Lat: -17.52 Lon: 118.95 Height: 0.0 m
Data from the previous 72 hours. | See also: Recent months at Rowley Shoals
Date/Time
WST
Temp
°C
App
Temp
°C
Dew
Point
°C
Rel
Hum
%
Delta-T
°C
Wind Press
QNH
hPa
Press
MSL
hPa
Rain since
9am
mm
Dir  Spd
km/h
Gust
km/h
Spd
kts
Gust
kts
19/10:30pm - - - - - SSW 26 30 14 16 1015.5 1015.5 -
19/10:00pm - - - - - SSW 26 32 14 17 1015.5 1015.5 -
19/09:30pm - - - - - SSW 28 33 15 18 1015.2 1015.2 -
19/09:00pm - - - - - SSW 28 33 15 18 1015.2 1015.2 -
19/08:30pm - - - - - SSW 28 32 15 17 1015.1 1015.1 -
19/08:00pm - - - - - SSW 26 30 14 16 1014.9 1015.0 -
19/07:30pm - - - - - SSW 26 32 14 17 1014.7 1014.7 -
19/07:00pm - - - - - SSW 26 32 14 17 1014.3 1014.5 -
19/06:30pm - - - - - SSW 26 30 14 16 1013.9 1013.9 -
19/06:00pm - - - - - SSW 28 32 15 17 1013.6 1013.7 -
19/05:30pm - - - - - SSW 26 32 14 17 1013.5 1013.5 -
19/05:00pm - - - - - SSW 24 30 13 16 1013.4 1013.5 -
19/04:30pm - - - - - S 22 28 12 15 1013.2 1013.2 -
19/04:00pm - - - - - SSW 22 28 12 15 1013.1 1013.2 -
19/03:30pm - - - - - SSW 20 24 11 13 1013.0 1013.0 -
19/03:00pm - - - - - SSW 20 26 11 14 1013.0 1012.9 -
19/02:30pm - - - - - SSW 19 22 10 12 1013.0 1013.0 -
19/02:00pm - - - - - S 19 24 10 13 1013.0 1013.0 -
19/01:30pm - - - - - S 20 26 11 14 1013.5 1013.5 -
19/01:00pm - - - - - SSW 22 26 12 14 1013.9 1013.8 -
19/12:30pm - - - - - SSW 22 28 12 15 1014.2 1014.2 -
19/12:00pm - - - - - SSW 22 28 12 15 1014.4 1014.4 -
19/11:30am - - - - - SSW 24 28 13 15 1014.8 1014.8 -
19/11:00am - - - - - SSW 24 28 13 15 1015.1 1015.0 -
19/10:30am - - - - - SSW 26 30 14 16 1015.5 1015.5 -
19/10:00am - - - - - SSW 24 30 13 16 1015.8 1015.7 -
19/09:30am - - - - - SSW 26 30 14 16 1015.8 1015.8 -
19/09:00am - - - - - SSW 28 32 15 17 1015.7 1015.8 -
19/08:30am - - - - - SSW 26 30 14 16 1015.4 1015.4 -
19/08:00am - - - - - SSW 28 32 15 17 1015.3 1015.3 -
19/07:30am - - - - - SSW 28 32 15 17 1015.0 1015.0 -
19/07:00am - - - - - SW 30 33 16 18 1014.5 1014.6 -
19/06:30am - - - - - SSW 28 32 15 17 1014.6 1014.6 -
19/06:00am - - - - - SW 30 35 16 19 1014.4 1014.5 -
19/05:30am - - - - - SSW 32 35 17 19 1014.2 1014.2 -
19/05:00am - - - - - SW 30 33 16 18 1014.0 1014.1 -
19/04:30am - - - - - SW 32 35 17 19 1013.7 1013.7 -
19/04:00am - - - - - SW 30 35 16 19 1013.8 1013.7 -
19/03:30am - - - - - SW 32 35 17 19 1013.9 1013.9 -
19/03:00am - - - - - SW 30 35 16 19 1014.0 1014.0 -
19/02:30am - - - - - SW 30 33 16 18 1014.1 1014.1 -
19/02:00am - - - - - SW 30 33 16 18 1014.3 1014.2 -
19/01:30am - - - - - SW 30 35 16 19 1014.5 1014.5 -
19/01:00am - - - - - SW 28 32 15 17 1014.6 1014.5 -
19/12:30am - - - - - SW 26 30 14 16 1014.9 1014.9 -
19/12:00am - - - - - SW 26 28 14 15 1014.9 1014.9 -
 
Date/Time
WST
Temp
°C
App
Temp
°C
Dew
Point
°C
Rel
Hum
%
Delta-T
°C
Wind Press
QNH
hPa
Press
MSL
hPa
Rain since
9am
mm
Dir  Spd
km/h
Gust
km/h
Spd
kts
Gust
kts
18/11:30pm - - - - - SW 26 30 14 16 1015.0 1015.0 -
18/11:00pm - - - - - SW 28 32 15 17 1015.0 1014.9 -
18/10:30pm - - - - - SW 26 30 14 16 1015.0 1015.0 -
18/10:00pm - - - - - SW 24 28 13 15 1014.8 1014.8 -
18/09:30pm - - - - - SW 20 24 11 13 1014.9 1014.9 -
18/09:00pm - - - - - SW 20 24 11 13 1014.8 1014.9 -
18/08:30pm - - - - - SW 19 20 10 11 1014.8 1014.8 -
18/08:00pm - - - - - SW 17 20 9 11 1014.5 1014.6 -
18/07:30pm - - - - - SW 15 19 8 10 1014.1 1014.1 -
18/07:00pm - - - - - SW 17 20 9 11 1013.7 1013.8 -
18/06:30pm - - - - - SW 19 20 10 11 1013.3 1013.3 -
18/06:00pm - - - - - SW 17 19 9 10 1012.9 1013.0 -
18/05:30pm - - - - - SW 17 20 9 11 1012.5 1012.5 -
18/05:00pm - - - - - SSW 17 20 9 11 1012.4 1012.4 -
18/04:30pm - - - - - SSW 17 20 9 11 1012.4 1012.4 -
18/04:00pm - - - - - SW 19 20 10 11 1012.3 1012.3 -
18/03:30pm - - - - - SSW 17 19 9 10 1012.1 1012.1 -
18/03:00pm - - - - - SW 15 19 8 10 1012.2 1012.1 -
18/02:30pm - - - - - SW 17 19 9 10 1012.2 1012.2 -
18/02:00pm - - - - - SSW 15 17 8 9 1012.3 1012.3 -
18/01:30pm - - - - - SSW 15 19 8 10 1012.5 1012.5 -
18/01:00pm - - - - - SSW 15 19 8 10 1012.8 1012.7 -
18/12:30pm - - - - - SSW 15 17 8 9 1013.2 1013.2 -
18/12:00pm - - - - - SSW 17 19 9 10 1013.4 1013.4 -
18/11:30am - - - - - S 15 20 8 11 1013.8 1013.8 -
18/11:00am - - - - - S 13 17 7 9 1014.1 1014.0 -
18/10:30am - - - - - S 13 15 7 8 1014.4 1014.4 -
18/10:00am - - - - - S 11 15 6 8 1014.6 1014.6 -
18/09:30am - - - - - SSE 13 19 7 10 1014.5 1014.5 -
18/09:00am - - - - - SSE 15 22 8 12 1014.4 1014.4 -
18/08:30am - - - - - S 15 24 8 13 1014.1 1014.1 -
18/08:00am - - - - - S 13 19 7 10 1014.0 1014.1 -
18/07:30am - - - - - S 17 20 9 11 1014.0 1014.0 -
18/07:00am - - - - - S 19 24 10 13 1013.8 1013.8 -
18/06:30am - - - - - SSW 19 20 10 11 1013.5 1013.5 -
18/06:00am - - - - - SSW 19 22 10 12 1013.2 1013.3 -
18/05:30am - - - - - SSW 17 20 9 11 1012.7 1012.7 -
18/05:00am - - - - - SW 17 19 9 10 1012.6 1012.6 -
18/04:30am - - - - - SW 15 17 8 9 1012.3 1012.3 -
18/04:00am - - - - - SW 15 17 8 9 1011.9 1012.0 -
18/03:30am - - - - - SW 15 17 8 9 1011.9 1011.9 -
18/03:00am - - - - - SW 15 17 8 9 1011.9 1012.0 -
18/02:30am - - - - - SW 13 17 7 9 1011.9 1011.9 -
18/02:00am - - - - - SW 11 13 6 7 1012.0 1012.0 -
18/01:30am - - - - - SSW 11 13 6 7 1012.2 1012.2 -
18/01:00am - - - - - SSW 11 13 6 7 1012.1 1012.1 -
18/12:30am - - - - - S 9 13 5 7 1012.2 1012.2 -
18/12:00am - - - - - S 7 9 4 5 1012.3 1012.2 -
 
Date/Time
WST
Temp
°C
App
Temp
°C
Dew
Point
°C
Rel
Hum
%
Delta-T
°C
Wind Press
QNH
hPa
Press
MSL
hPa
Rain since
9am
mm
Dir  Spd
km/h
Gust
km/h
Spd
kts
Gust
kts
17/11:30pm - - - - - SSE 9 11 5 6 1012.4 1012.4 -
17/11:00pm - - - - - SSE 9 13 5 7 1012.6 1012.4 -
17/10:30pm - - - - - SSE 9 13 5 7 1012.6 1012.6 -
17/10:00pm - - - - - SSE 9 11 5 6 1012.7 1012.6 -
17/09:30pm - - - - - SSE 9 13 5 7 1012.7 1012.7 -
17/09:00pm - - - - - SSE 11 13 6 7 1012.7 1012.7 -
17/08:30pm - - - - - SSE 11 15 6 8 1012.6 1012.6 -
17/08:00pm - - - - - SE 13 15 7 8 1012.4 1012.5 -
17/07:30pm - - - - - SE 15 17 8 9 1012.1 1012.1 -
17/07:00pm - - - - - SE 13 17 7 9 1011.8 1011.9 -
17/06:30pm - - - - - SE 15 17 8 9 1011.6 1011.6 -
17/06:00pm - - - - - SE 15 19 8 10 1011.2 1011.3 -
17/05:30pm - - - - - SE 17 19 9 10 1011.0 1011.0 -
17/05:00pm - - - - - ESE 19 20 10 11 1011.0 1011.0 -
17/04:30pm - - - - - SE 19 22 10 12 1010.8 1010.8 -
17/04:00pm - - - - - SE 19 22 10 12 1010.8 1010.8 -
17/03:30pm - - - - - SE 17 20 9 11 1010.8 1010.8 -
17/03:00pm - - - - - SE 17 20 9 11 1010.9 1010.9 -
17/02:30pm - - - - - SE 17 20 9 11 1011.1 1011.1 -
17/02:00pm - - - - - SE 19 22 10 12 1011.2 1011.1 -
17/01:30pm - - - - - SE 19 22 10 12 1011.5 1011.5 -
17/01:00pm - - - - - SE 17 22 9 12 1012.1 1011.9 -
17/12:30pm - - - - - SSE 19 22 10 12 1012.4 1012.4 -
17/12:00pm - - - - - SSE 15 20 8 11 1012.8 1012.7 -
17/11:30am - - - - - SE 17 20 9 11 1013.2 1013.2 -
17/11:00am - - - - - SSE 19 22 10 12 1013.5 1013.4 -
17/10:30am - - - - - SSE 17 24 9 13 1013.7 1013.7 -
17/10:00am - - - - - S 17 24 9 13 1014.0 1013.8 -
17/09:30am - - - - - SW 11 13 6 7 1014.0 1014.0 -
17/09:00am - - - - - W 9 11 5 6 1013.5 1013.5 -
17/08:30am - - - - - WNW 11 13 6 7 1013.3 1013.3 -
17/08:00am - - - - - W 9 11 5 6 1013.2 1013.3 -
17/07:30am - - - - - W 11 13 6 7 1013.0 1013.0 -
17/07:00am - - - - - W 9 11 5 6 1012.7 1012.8 -
17/06:30am - - - - - W 9 11 5 6 1012.5 1012.5 -
17/06:00am - - - - - W 9 13 5 7 1012.2 1012.4 -
17/05:30am - - - - - W 9 11 5 6 1012.0 1012.0 -
17/05:00am - - - - - WNW 7 9 4 5 1011.7 1011.7 -
17/04:30am - - - - - WNW 9 11 5 6 1011.5 1011.5 -
17/04:00am - - - - - WNW 6 9 3 5 1011.5 1011.5 -
17/03:30am - - - - - WNW 6 7 3 4 1011.5 1011.5 -
17/03:00am - - - - - CALM 0 0 0 0 1011.5 1011.5 -
17/02:30am - - - - - NW 4 6 2 3 1011.5 1011.5 -
17/02:00am - - - - - NNW 7 9 4 5 1011.8 1011.7 -
17/01:30am - - - - - NW 9 11 5 6 1011.9 1011.9 -
17/01:00am - - - - - NW 9 11 5 6 1012.2 1012.1 -
17/12:30am - - - - - NW 9 13 5 7 1012.3 1012.3 -
17/12:00am - - - - - NW 9 11 5 6 1012.4 1012.4 -
 
Date/Time
WST
Temp
°C
App
Temp
°C
Dew
Point
°C
Rel
Hum
%
Delta-T
°C
Wind Press
QNH
hPa
Press
MSL
hPa
Rain since
9am
mm
Dir  Spd
km/h
Gust
km/h
Spd
kts
Gust
kts
16/11:30pm - - - - - NW 7 9 4 5 1012.5 1012.5 -
16/11:00pm - - - - - CALM 0 0 0 0 1012.7 1012.6 -

Other Formats:

Comma delimited format used in spreadsheet applications
http://www.bom.gov.au/fwo/IDW60801/IDW60801.94207.axf

JavaScript Object Notation format (JSON) in row-major order
http://www.bom.gov.au/fwo/IDW60801/IDW60801.94207.json